sensor_id;sensor_type;location;lat;lon;timestamp;temperature;humidity
11559;DHT22;5835;42.930;25.178;2023-05-10T00:01:25;9.80;99.90
11559;DHT22;5835;42.930;25.178;2023-05-10T00:03:54;9.80;99.90
11559;DHT22;5835;42.930;25.178;2023-05-10T00:06:21;9.80;99.90
11559;DHT22;5835;42.930;25.178;2023-05-10T00:08:49;9.80;99.90
11559;DHT22;5835;42.930;25.178;2023-05-10T00:11:16;9.70;99.90
11559;DHT22;5835;42.930;25.178;2023-05-10T00:13:44;9.80;99.90
11559;DHT22;5835;42.930;25.178;2023-05-10T00:16:11;9.90;99.90
11559;DHT22;5835;42.930;25.178;2023-05-10T00:18:39;9.90;99.90
11559;DHT22;5835;42.930;25.178;2023-05-10T00:21:08;9.80;99.90
11559;DHT22;5835;42.930;25.178;2023-05-10T00:23:36;9.90;99.90
11559;DHT22;5835;42.930;25.178;2023-05-10T00:26:03;9.90;99.90
11559;DHT22;5835;42.930;25.178;2023-05-10T00:28:30;10.00;99.90
11559;DHT22;5835;42.930;25.178;2023-05-10T00:30:58;9.90;99.90
11559;DHT22;5835;42.930;25.178;2023-05-10T00:33:25;10.00;99.90
11559;DHT22;5835;42.930;25.178;2023-05-10T00:35:53;9.90;99.90
11559;DHT22;5835;42.930;25.178;2023-05-10T00:38:22;9.90;99.90
11559;DHT22;5835;42.930;25.178;2023-05-10T00:40:50;9.90;99.90
11559;DHT22;5835;42.930;25.178;2023-05-10T00:43:18;9.90;99.90
11559;DHT22;5835;42.930;25.178;2023-05-10T00:45:45;9.90;99.90
11559;DHT22;5835;42.930;25.178;2023-05-10T00:48:13;9.90;99.90
11559;DHT22;5835;42.930;25.178;2023-05-10T00:50:40;10.00;99.90
11559;DHT22;5835;42.930;25.178;2023-05-10T00:53:08;10.00;99.90
11559;DHT22;5835;42.930;25.178;2023-05-10T00:55:38;10.00;99.90
11559;DHT22;5835;42.930;25.178;2023-05-10T00:58:05;10.00;99.90
11559;DHT22;5835;42.930;25.178;2023-05-10T01:00:34;9.90;99.90
11559;DHT22;5835;42.930;25.178;2023-05-10T01:03:03;9.90;99.90
11559;DHT22;5835;42.930;25.178;2023-05-10T01:05:30;9.80;99.90
11559;DHT22;5835;42.930;25.178;2023-05-10T01:07:58;9.80;99.90
11559;DHT22;5835;42.930;25.178;2023-05-10T01:10:25;9.80;99.90
11559;DHT22;5835;42.930;25.178;2023-05-10T01:12:57;9.80;99.90
11559;DHT22;5835;42.930;25.178;2023-05-10T01:15:26;9.70;99.90
11559;DHT22;5835;42.930;25.178;2023-05-10T01:17:54;9.70;99.90
11559;DHT22;5835;42.930;25.178;2023-05-10T01:20:23;9.60;99.90
11559;DHT22;5835;42.930;25.178;2023-05-10T01:23:18;9.60;99.90
11559;DHT22;5835;42.930;25.178;2023-05-10T01:32:10;9.50;99.90
11559;DHT22;5835;42.930;25.178;2023-05-10T01:34:45;9.50;99.90
11559;DHT22;5835;42.930;25.178;2023-05-10T01:37:20;9.40;99.90
11559;DHT22;5835;42.930;25.178;2023-05-10T01:39:53;9.40;99.90
11559;DHT22;5835;42.930;25.178;2023-05-10T01:42:25;9.40;99.90
11559;DHT22;5835;42.930;25.178;2023-05-10T01:44:58;9.40;99.90
11559;DHT22;5835;42.930;25.178;2023-05-10T01:47:32;9.40;99.90
11559;DHT22;5835;42.930;25.178;2023-05-10T01:50:04;9.30;99.90
11559;DHT22;5835;42.930;25.178;2023-05-10T01:52:38;9.30;99.90
11559;DHT22;5835;42.930;25.178;2023-05-10T01:55:09;9.30;99.90
11559;DHT22;5835;42.930;25.178;2023-05-10T01:57:38;9.20;99.90
11559;DHT22;5835;42.930;25.178;2023-05-10T02:00:08;9.20;99.90
11559;DHT22;5835;42.930;25.178;2023-05-10T02:02:39;9.20;99.90
11559;DHT22;5835;42.930;25.178;2023-05-10T02:05:08;9.20;99.90
11559;DHT22;5835;42.930;25.178;2023-05-10T02:07:36;9.20;99.90
11559;DHT22;5835;42.930;25.178;2023-05-10T02:10:06;9.10;99.90
11559;DHT22;5835;42.930;25.178;2023-05-10T02:12:36;9.10;99.90
11559;DHT22;5835;42.930;25.178;2023-05-10T02:15:06;9.10;99.90
11559;DHT22;5835;42.930;25.178;2023-05-10T02:17:37;9.10;99.90
11559;DHT22;5835;42.930;25.178;2023-05-10T02:20:06;9.00;99.90
11559;DHT22;5835;42.930;25.178;2023-05-10T02:22:35;9.00;99.90
11559;DHT22;5835;42.930;25.178;2023-05-10T02:25:04;8.90;99.90
11559;DHT22;5835;42.930;25.178;2023-05-10T02:27:34;8.90;99.90
11559;DHT22;5835;42.930;25.178;2023-05-10T02:30:02;8.90;99.90
11559;DHT22;5835;42.930;25.178;2023-05-10T02:32:30;8.90;99.90
11559;DHT22;5835;42.930;25.178;2023-05-10T02:35:01;8.80;99.90
11559;DHT22;5835;42.930;25.178;2023-05-10T02:37:29;8.90;99.90
11559;DHT22;5835;42.930;25.178;2023-05-10T02:39:57;8.80;99.90
11559;DHT22;5835;42.930;25.178;2023-05-10T02:42:27;8.80;99.90
11559;DHT22;5835;42.930;25.178;2023-05-10T02:44:59;8.70;99.90
11559;DHT22;5835;42.930;25.178;2023-05-10T02:47:27;8.70;99.90
11559;DHT22;5835;42.930;25.178;2023-05-10T02:49:55;8.60;99.90
11559;DHT22;5835;42.930;25.178;2023-05-10T02:52:27;8.60;99.90
11559;DHT22;5835;42.930;25.178;2023-05-10T02:54:58;8.50;99.90
11559;DHT22;5835;42.930;25.178;2023-05-10T02:57:30;8.50;99.90
11559;DHT22;5835;42.930;25.178;2023-05-10T02:59:59;8.50;99.90
11559;DHT22;5835;42.930;25.178;2023-05-10T03:02:28;8.50;99.90
11559;DHT22;5835;42.930;25.178;2023-05-10T03:04:56;8.50;99.90
11559;DHT22;5835;42.930;25.178;2023-05-10T03:07:26;8.50;99.90
11559;DHT22;5835;42.930;25.178;2023-05-10T03:09:53;8.60;99.90
11559;DHT22;5835;42.930;25.178;2023-05-10T03:12:27;8.60;99.90
11559;DHT22;5835;42.930;25.178;2023-05-10T03:15:06;8.60;99.90
11559;DHT22;5835;42.930;25.178;2023-05-10T03:17:42;8.60;99.90
11559;DHT22;5835;42.930;25.178;2023-05-10T03:20:21;8.50;99.90
11559;DHT22;5835;42.930;25.178;2023-05-10T03:22:53;8.50;99.90
11559;DHT22;5835;42.930;25.178;2023-05-10T03:25:23;8.50;99.90
11559;DHT22;5835;42.930;25.178;2023-05-10T03:27:52;8.50;99.90
11559;DHT22;5835;42.930;25.178;2023-05-10T03:30:20;8.50;99.90
11559;DHT22;5835;42.930;25.178;2023-05-10T03:32:48;8.40;99.90
11559;DHT22;5835;42.930;25.178;2023-05-10T03:35:15;8.30;99.90
11559;DHT22;5835;42.930;25.178;2023-05-10T03:37:43;8.20;99.90
11559;DHT22;5835;42.930;25.178;2023-05-10T03:40:13;8.20;99.90
11559;DHT22;5835;42.930;25.178;2023-05-10T03:42:41;8.20;99.90
11559;DHT22;5835;42.930;25.178;2023-05-10T03:45:09;8.20;99.90
11559;DHT22;5835;42.930;25.178;2023-05-10T03:47:37;8.30;99.90
11559;DHT22;5835;42.930;25.178;2023-05-10T03:50:06;8.40;99.90
11559;DHT22;5835;42.930;25.178;2023-05-10T03:52:33;8.50;99.90
11559;DHT22;5835;42.930;25.178;2023-05-10T03:55:01;8.50;99.90
11559;DHT22;5835;42.930;25.178;2023-05-10T03:57:30;8.50;99.90
11559;DHT22;5835;42.930;25.178;2023-05-10T03:59:58;8.50;99.90
11559;DHT22;5835;42.930;25.178;2023-05-10T04:02:26;8.50;99.90
11559;DHT22;5835;42.930;25.178;2023-05-10T04:04:53;8.50;99.90
11559;DHT22;5835;42.930;25.178;2023-05-10T04:07:21;8.60;99.90
11559;DHT22;5835;42.930;25.178;2023-05-10T04:09:48;8.60;99.90
11559;DHT22;5835;42.930;25.178;2023-05-10T04:12:16;8.60;99.90
11559;DHT22;5835;42.930;25.178;2023-05-10T04:14:46;8.70;99.90
11559;DHT22;5835;42.930;25.178;2023-05-10T04:17:13;8.70;99.90
11559;DHT22;5835;42.930;25.178;2023-05-10T04:19:41;8.70;99.90
11559;DHT22;5835;42.930;25.178;2023-05-10T04:22:08;8.70;99.90
11559;DHT22;5835;42.930;25.178;2023-05-10T04:24:35;8.80;99.90
11559;DHT22;5835;42.930;25.178;2023-05-10T04:27:03;8.70;99.90
11559;DHT22;5835;42.930;25.178;2023-05-10T04:29:30;8.70;99.90
11559;DHT22;5835;42.930;25.178;2023-05-10T04:31:59;8.80;99.90
11559;DHT22;5835;42.930;25.178;2023-05-10T04:34:27;8.90;99.90
11559;DHT22;5835;42.930;25.178;2023-05-10T04:36:55;8.80;99.90
11559;DHT22;5835;42.930;25.178;2023-05-10T04:39:23;8.90;99.90
11559;DHT22;5835;42.930;25.178;2023-05-10T04:41:50;8.90;99.90
11559;DHT22;5835;42.930;25.178;2023-05-10T04:44:17;8.90;99.90
11559;DHT22;5835;42.930;25.178;2023-05-10T04:46:45;9.00;99.90
11559;DHT22;5835;42.930;25.178;2023-05-10T04:49:14;9.00;99.90
11559;DHT22;5835;42.930;25.178;2023-05-10T04:51:41;9.10;99.90
11559;DHT22;5835;42.930;25.178;2023-05-10T04:54:09;9.20;99.90
11559;DHT22;5835;42.930;25.178;2023-05-10T04:56:36;9.30;99.90
11559;DHT22;5835;42.930;25.178;2023-05-10T04:59:04;9.30;99.90
11559;DHT22;5835;42.930;25.178;2023-05-10T05:01:31;9.40;99.90
11559;DHT22;5835;42.930;25.178;2023-05-10T05:03:58;9.50;99.90
11559;DHT22;5835;42.930;25.178;2023-05-10T05:06:28;9.40;99.90
11559;DHT22;5835;42.930;25.178;2023-05-10T05:08:55;9.50;99.90
11559;DHT22;5835;42.930;25.178;2023-05-10T05:11:23;9.50;99.90
11559;DHT22;5835;42.930;25.178;2023-05-10T05:13:51;9.60;99.90
11559;DHT22;5835;42.930;25.178;2023-05-10T05:16:18;9.70;99.90
11559;DHT22;5835;42.930;25.178;2023-05-10T05:18:46;9.80;99.90
11559;DHT22;5835;42.930;25.178;2023-05-10T05:21:14;9.80;99.90
11559;DHT22;5835;42.930;25.178;2023-05-10T05:23:47;9.90;99.90
11559;DHT22;5835;42.930;25.178;2023-05-10T05:26:14;9.90;99.90
11559;DHT22;5835;42.930;25.178;2023-05-10T05:28:42;10.00;99.90
11559;DHT22;5835;42.930;25.178;2023-05-10T05:31:09;10.10;28.30
11559;DHT22;5835;42.930;25.178;2023-05-10T05:33:37;10.20;9.70
11559;DHT22;5835;42.930;25.178;2023-05-10T05:36:05;10.30;1.00
11559;DHT22;5835;42.930;25.178;2023-05-10T05:38:33;10.40;1.00
11559;DHT22;5835;42.930;25.178;2023-05-10T05:41:02;10.50;1.00
11559;DHT22;5835;42.930;25.178;2023-05-10T05:43:29;10.60;1.00
11559;DHT22;5835;42.930;25.178;2023-05-10T05:45:58;10.70;1.00
11559;DHT22;5835;42.930;25.178;2023-05-10T05:48:26;10.80;1.00
11559;DHT22;5835;42.930;25.178;2023-05-10T05:50:54;10.90;1.00
11559;DHT22;5835;42.930;25.178;2023-05-10T05:53:23;10.90;7.90
11559;DHT22;5835;42.930;25.178;2023-05-10T05:55:54;11.00;99.90
11559;DHT22;5835;42.930;25.178;2023-05-10T05:58:23;11.10;99.90
11559;DHT22;5835;42.930;25.178;2023-05-10T06:00:51;11.20;3.10
11559;DHT22;5835;42.930;25.178;2023-05-10T06:03:19;11.20;1.00
11559;DHT22;5835;42.930;25.178;2023-05-10T06:05:46;11.30;22.50
11559;DHT22;5835;42.930;25.178;2023-05-10T06:08:14;11.40;1.00
11559;DHT22;5835;42.930;25.178;2023-05-10T06:10:42;11.60;99.90
11559;DHT22;5835;42.930;25.178;2023-05-10T06:13:10;11.60;1.00
11559;DHT22;5835;42.930;25.178;2023-05-10T06:15:39;11.70;99.90
11559;DHT22;5835;42.930;25.178;2023-05-10T06:18:06;11.80;99.90
11559;DHT22;5835;42.930;25.178;2023-05-10T06:20:33;11.90;1.00
11559;DHT22;5835;42.930;25.178;2023-05-10T06:23:01;12.00;1.00
11559;DHT22;5835;42.930;25.178;2023-05-10T06:25:29;12.00;99.90
11559;DHT22;5835;42.930;25.178;2023-05-10T06:27:56;12.10;99.90
11559;DHT22;5835;42.930;25.178;2023-05-10T06:30:24;12.30;1.00
11559;DHT22;5835;42.930;25.178;2023-05-10T06:32:55;12.20;1.00
11559;DHT22;5835;42.930;25.178;2023-05-10T06:35:22;12.40;82.00
11559;DHT22;5835;42.930;25.178;2023-05-10T06:37:50;12.50;1.00
11559;DHT22;5835;42.930;25.178;2023-05-10T06:40:20;12.60;99.90
11559;DHT22;5835;42.930;25.178;2023-05-10T06:42:47;12.70;99.90
11559;DHT22;5835;42.930;25.178;2023-05-10T06:45:15;12.70;1.00
11559;DHT22;5835;42.930;25.178;2023-05-10T06:47:43;12.80;99.90
11559;DHT22;5835;42.930;25.178;2023-05-10T06:50:12;13.00;1.00
11559;DHT22;5835;42.930;25.178;2023-05-10T06:52:39;12.90;1.00
11559;DHT22;5835;42.930;25.178;2023-05-10T06:55:07;13.10;31.80
11559;DHT22;5835;42.930;25.178;2023-05-10T06:57:35;13.50;42.20
11559;DHT22;5835;42.930;25.178;2023-05-10T07:00:03;13.60;99.90
11559;DHT22;5835;42.930;25.178;2023-05-10T07:02:31;13.70;99.90
11559;DHT22;5835;42.930;25.178;2023-05-10T07:04:58;13.70;31.60
11559;DHT22;5835;42.930;25.178;2023-05-10T07:07:27;13.70;19.30
11559;DHT22;5835;42.930;25.178;2023-05-10T07:09:55;13.50;1.00
11559;DHT22;5835;42.930;25.178;2023-05-10T07:12:23;13.50;1.00
11559;DHT22;5835;42.930;25.178;2023-05-10T07:14:50;13.70;99.90
11559;DHT22;5835;42.930;25.178;2023-05-10T07:17:21;13.60;1.00
11559;DHT22;5835;42.930;25.178;2023-05-10T07:19:48;13.70;1.00
11559;DHT22;5835;42.930;25.178;2023-05-10T07:22:16;13.60;1.00
11559;DHT22;5835;42.930;25.178;2023-05-10T07:24:45;13.60;1.00
11559;DHT22;5835;42.930;25.178;2023-05-10T07:27:13;14.00;1.00
11559;DHT22;5835;42.930;25.178;2023-05-10T07:29:41;13.90;1.00
11559;DHT22;5835;42.930;25.178;2023-05-10T07:32:08;14.10;1.00
11559;DHT22;5835;42.930;25.178;2023-05-10T07:34:35;14.30;1.00
11559;DHT22;5835;42.930;25.178;2023-05-10T07:37:03;14.40;1.00
11559;DHT22;5835;42.930;25.178;2023-05-10T07:39:32;14.40;99.90
11559;DHT22;5835;42.930;25.178;2023-05-10T07:42:01;14.70;1.00
11559;DHT22;5835;42.930;25.178;2023-05-10T07:44:28;14.50;99.90
11559;DHT22;5835;42.930;25.178;2023-05-10T07:46:56;14.70;99.90
11559;DHT22;5835;42.930;25.178;2023-05-10T07:49:23;15.20;1.00
11559;DHT22;5835;42.930;25.178;2023-05-10T07:51:51;15.40;99.90
11559;DHT22;5835;42.930;25.178;2023-05-10T07:54:18;15.50;99.90
11559;DHT22;5835;42.930;25.178;2023-05-10T07:56:46;15.70;99.90
11559;DHT22;5835;42.930;25.178;2023-05-10T07:59:16;16.10;99.90
11559;DHT22;5835;42.930;25.178;2023-05-10T08:01:44;16.00;99.90
11559;DHT22;5835;42.930;25.178;2023-05-10T08:04:12;15.70;99.90
11559;DHT22;5835;42.930;25.178;2023-05-10T08:06:40;15.90;99.90
11559;DHT22;5835;42.930;25.178;2023-05-10T08:09:07;15.90;99.90
11559;DHT22;5835;42.930;25.178;2023-05-10T08:11:35;16.10;99.90
11559;DHT22;5835;42.930;25.178;2023-05-10T08:14:03;16.20;99.90
11559;DHT22;5835;42.930;25.178;2023-05-10T08:16:31;16.40;86.00
11559;DHT22;5835;42.930;25.178;2023-05-10T08:19:00;16.50;74.70
11559;DHT22;5835;42.930;25.178;2023-05-10T08:21:27;16.70;90.80
11559;DHT22;5835;42.930;25.178;2023-05-10T08:23:55;16.70;62.90
11559;DHT22;5835;42.930;25.178;2023-05-10T08:26:22;16.50;35.00
11559;DHT22;5835;42.930;25.178;2023-05-10T08:28:50;16.80;59.60
11559;DHT22;5835;42.930;25.178;2023-05-10T08:31:18;16.90;94.60
11559;DHT22;5835;42.930;25.178;2023-05-10T08:33:47;16.60;17.70
11559;DHT22;5835;42.930;25.178;2023-05-10T08:36:14;16.50;5.90
11559;DHT22;5835;42.930;25.178;2023-05-10T08:38:49;16.40;13.70
11559;DHT22;5835;42.930;25.178;2023-05-10T08:41:18;16.30;24.50
11559;DHT22;5835;42.930;25.178;2023-05-10T08:43:47;16.80;87.50
11559;DHT22;5835;42.930;25.178;2023-05-10T08:46:16;16.90;34.60
11559;DHT22;5835;42.930;25.178;2023-05-10T08:48:50;17.20;49.80
11559;DHT22;5835;42.930;25.178;2023-05-10T08:51:22;17.10;1.00
11559;DHT22;5835;42.930;25.178;2023-05-10T08:53:52;17.40;12.20
11559;DHT22;5835;42.930;25.178;2023-05-10T08:56:20;17.50;1.00
11559;DHT22;5835;42.930;25.178;2023-05-10T08:58:48;17.50;1.00
11559;DHT22;5835;42.930;25.178;2023-05-10T09:01:17;17.70;1.00
11559;DHT22;5835;42.930;25.178;2023-05-10T09:03:47;17.90;1.00
11559;DHT22;5835;42.930;25.178;2023-05-10T09:06:15;18.40;1.00
11559;DHT22;5835;42.930;25.178;2023-05-10T09:08:43;18.40;1.00
11559;DHT22;5835;42.930;25.178;2023-05-10T09:11:12;18.30;1.00
11559;DHT22;5835;42.930;25.178;2023-05-10T09:13:40;18.40;1.00
11559;DHT22;5835;42.930;25.178;2023-05-10T09:16:09;18.40;1.00
11559;DHT22;5835;42.930;25.178;2023-05-10T09:18:37;18.50;1.00
11559;DHT22;5835;42.930;25.178;2023-05-10T09:21:06;18.80;1.00
11559;DHT22;5835;42.930;25.178;2023-05-10T09:23:33;18.80;1.00
11559;DHT22;5835;42.930;25.178;2023-05-10T09:26:04;18.90;1.00
11559;DHT22;5835;42.930;25.178;2023-05-10T09:28:33;19.20;1.00
11559;DHT22;5835;42.930;25.178;2023-05-10T09:31:01;19.60;1.00
11559;DHT22;5835;42.930;25.178;2023-05-10T09:33:28;19.70;1.00
11559;DHT22;5835;42.930;25.178;2023-05-10T09:36:08;19.60;1.00
11559;DHT22;5835;42.930;25.178;2023-05-10T09:38:45;19.80;1.00
11559;DHT22;5835;42.930;25.178;2023-05-10T09:41:17;19.50;1.00
11559;DHT22;5835;42.930;25.178;2023-05-10T09:43:46;19.40;1.00
11559;DHT22;5835;42.930;25.178;2023-05-10T09:46:14;20.20;1.00
11559;DHT22;5835;42.930;25.178;2023-05-10T09:48:43;20.30;1.00
11559;DHT22;5835;42.930;25.178;2023-05-10T09:51:19;19.90;1.00
11559;DHT22;5835;42.930;25.178;2023-05-10T09:53:46;20.10;1.00
11559;DHT22;5835;42.930;25.178;2023-05-10T09:56:33;20.60;1.00
11559;DHT22;5835;42.930;25.178;2023-05-10T09:59:04;21.00;1.00
11559;DHT22;5835;42.930;25.178;2023-05-10T10:01:32;21.10;1.00
11559;DHT22;5835;42.930;25.178;2023-05-10T10:04:00;21.10;1.00
11559;DHT22;5835;42.930;25.178;2023-05-10T10:06:35;21.00;1.00
11559;DHT22;5835;42.930;25.178;2023-05-10T10:09:04;21.10;1.00
11559;DHT22;5835;42.930;25.178;2023-05-10T10:11:32;21.40;1.00
11559;DHT22;5835;42.930;25.178;2023-05-10T10:14:00;20.30;1.00
11559;DHT22;5835;42.930;25.178;2023-05-10T10:16:29;20.40;1.00
11559;DHT22;5835;42.930;25.178;2023-05-10T10:18:56;21.20;1.00
11559;DHT22;5835;42.930;25.178;2023-05-10T10:21:24;21.00;1.00
11559;DHT22;5835;42.930;25.178;2023-05-10T10:23:54;21.40;1.00
11559;DHT22;5835;42.930;25.178;2023-05-10T10:26:22;21.20;1.00
11559;DHT22;5835;42.930;25.178;2023-05-10T10:29:00;21.60;1.00
11559;DHT22;5835;42.930;25.178;2023-05-10T10:31:36;21.70;1.00
11559;DHT22;5835;42.930;25.178;2023-05-10T10:34:06;21.40;1.00
11559;DHT22;5835;42.930;25.178;2023-05-10T10:36:40;21.40;1.00
11559;DHT22;5835;42.930;25.178;2023-05-10T10:39:11;21.70;1.00
11559;DHT22;5835;42.930;25.178;2023-05-10T10:41:40;21.70;1.00
11559;DHT22;5835;42.930;25.178;2023-05-10T10:44:39;21.90;1.00
11559;DHT22;5835;42.930;25.178;2023-05-10T10:47:22;22.70;1.00
11559;DHT22;5835;42.930;25.178;2023-05-10T10:49:51;22.70;1.00
11559;DHT22;5835;42.930;25.178;2023-05-10T10:52:25;22.30;1.00
11559;DHT22;5835;42.930;25.178;2023-05-10T10:55:01;22.60;1.00
11559;DHT22;5835;42.930;25.178;2023-05-10T10:57:32;22.60;1.00
11559;DHT22;5835;42.930;25.178;2023-05-10T11:00:25;22.50;1.00
11559;DHT22;5835;42.930;25.178;2023-05-10T11:02:56;22.80;1.00
11559;DHT22;5835;42.930;25.178;2023-05-10T11:05:44;22.60;1.00
11559;DHT22;5835;42.930;25.178;2023-05-10T11:08:27;22.70;1.00
11559;DHT22;5835;42.930;25.178;2023-05-10T11:11:06;22.70;1.00
11559;DHT22;5835;42.930;25.178;2023-05-10T11:13:39;22.50;1.00
11559;DHT22;5835;42.930;25.178;2023-05-10T11:16:17;22.70;1.00
11559;DHT22;5835;42.930;25.178;2023-05-10T11:18:58;22.50;1.00
11559;DHT22;5835;42.930;25.178;2023-05-10T11:21:28;22.70;1.00
11559;DHT22;5835;42.930;25.178;2023-05-10T11:23:57;22.50;1.00
11559;DHT22;5835;42.930;25.178;2023-05-10T11:26:31;23.10;1.00
11559;DHT22;5835;42.930;25.178;2023-05-10T11:29:00;23.30;1.00
11559;DHT22;5835;42.930;25.178;2023-05-10T11:31:29;23.40;1.00
11559;DHT22;5835;42.930;25.178;2023-05-10T11:33:58;23.00;1.00
11559;DHT22;5835;42.930;25.178;2023-05-10T11:36:28;22.70;1.00
11559;DHT22;5835;42.930;25.178;2023-05-10T11:38:57;23.20;1.00
11559;DHT22;5835;42.930;25.178;2023-05-10T11:41:27;23.40;1.00
11559;DHT22;5835;42.930;25.178;2023-05-10T11:43:56;23.60;1.00
11559;DHT22;5835;42.930;25.178;2023-05-10T11:46:25;23.70;1.00
11559;DHT22;5835;42.930;25.178;2023-05-10T11:48:55;23.50;1.00
11559;DHT22;5835;42.930;25.178;2023-05-10T11:51:26;23.30;1.00
11559;DHT22;5835;42.930;25.178;2023-05-10T11:53:54;22.90;1.00
11559;DHT22;5835;42.930;25.178;2023-05-10T11:56:22;22.60;1.00
11559;DHT22;5835;42.930;25.178;2023-05-10T11:58:57;22.60;1.00
11559;DHT22;5835;42.930;25.178;2023-05-10T12:01:26;22.80;1.00
11559;DHT22;5835;42.930;25.178;2023-05-10T12:03:56;23.00;1.00
11559;DHT22;5835;42.930;25.178;2023-05-10T12:06:26;23.30;1.00
11559;DHT22;5835;42.930;25.178;2023-05-10T12:08:54;23.40;1.00
11559;DHT22;5835;42.930;25.178;2023-05-10T12:11:25;23.30;1.00
11559;DHT22;5835;42.930;25.178;2023-05-10T12:13:55;23.10;1.00
11559;DHT22;5835;42.930;25.178;2023-05-10T12:16:24;23.30;1.00
11559;DHT22;5835;42.930;25.178;2023-05-10T12:18:57;23.10;1.00
11559;DHT22;5835;42.930;25.178;2023-05-10T12:21:25;23.10;1.00
11559;DHT22;5835;42.930;25.178;2023-05-10T12:23:54;23.40;1.00
11559;DHT22;5835;42.930;25.178;2023-05-10T12:26:22;23.60;1.00
11559;DHT22;5835;42.930;25.178;2023-05-10T12:28:50;23.50;1.00
11559;DHT22;5835;42.930;25.178;2023-05-10T12:31:19;23.90;1.00
11559;DHT22;5835;42.930;25.178;2023-05-10T12:33:47;23.70;1.00
11559;DHT22;5835;42.930;25.178;2023-05-10T12:36:16;23.30;1.00
11559;DHT22;5835;42.930;25.178;2023-05-10T12:38:45;23.50;1.00
11559;DHT22;5835;42.930;25.178;2023-05-10T12:41:15;22.70;1.00
11559;DHT22;5835;42.930;25.178;2023-05-10T12:43:43;23.00;1.00
11559;DHT22;5835;42.930;25.178;2023-05-10T12:46:12;23.30;1.00
11559;DHT22;5835;42.930;25.178;2023-05-10T12:48:42;23.80;1.00
11559;DHT22;5835;42.930;25.178;2023-05-10T12:51:09;22.80;1.00
11559;DHT22;5835;42.930;25.178;2023-05-10T12:53:38;22.50;1.00
11559;DHT22;5835;42.930;25.178;2023-05-10T12:56:07;22.30;1.00
11559;DHT22;5835;42.930;25.178;2023-05-10T12:58:34;22.90;1.00
11559;DHT22;5835;42.930;25.178;2023-05-10T13:01:02;23.30;1.00
11559;DHT22;5835;42.930;25.178;2023-05-10T13:03:30;23.40;1.00
11559;DHT22;5835;42.930;25.178;2023-05-10T13:05:59;23.50;1.00
11559;DHT22;5835;42.930;25.178;2023-05-10T13:08:27;23.20;1.00
11559;DHT22;5835;42.930;25.178;2023-05-10T13:10:59;23.40;1.00
11559;DHT22;5835;42.930;25.178;2023-05-10T13:13:26;23.70;1.00
11559;DHT22;5835;42.930;25.178;2023-05-10T13:15:54;23.20;99.90
11559;DHT22;5835;42.930;25.178;2023-05-10T13:18:21;22.60;99.90
11559;DHT22;5835;42.930;25.178;2023-05-10T13:20:53;22.40;99.90
11559;DHT22;5835;42.930;25.178;2023-05-10T13:23:24;22.10;1.00
11559;DHT22;5835;42.930;25.178;2023-05-10T13:25:51;22.30;1.00
11559;DHT22;5835;42.930;25.178;2023-05-10T13:28:19;22.60;1.00
11559;DHT22;5835;42.930;25.178;2023-05-10T13:30:46;23.00;1.00
11559;DHT22;5835;42.930;25.178;2023-05-10T13:33:14;22.90;99.90
11559;DHT22;5835;42.930;25.178;2023-05-10T13:35:41;23.00;99.90
11559;DHT22;5835;42.930;25.178;2023-05-10T13:38:09;22.70;99.90
11559;DHT22;5835;42.930;25.178;2023-05-10T13:40:38;23.10;99.90
11559;DHT22;5835;42.930;25.178;2023-05-10T13:43:05;23.40;99.90
11559;DHT22;5835;42.930;25.178;2023-05-10T13:45:33;22.90;99.90
11559;DHT22;5835;42.930;25.178;2023-05-10T13:48:00;23.70;99.90
11559;DHT22;5835;42.930;25.178;2023-05-10T13:50:28;24.00;1.00
11559;DHT22;5835;42.930;25.178;2023-05-10T13:52:55;23.30;99.90
11559;DHT22;5835;42.930;25.178;2023-05-10T13:55:23;23.10;1.00
11559;DHT22;5835;42.930;25.178;2023-05-10T13:57:52;23.70;99.90
11559;DHT22;5835;42.930;25.178;2023-05-10T14:00:20;24.00;99.90
11559;DHT22;5835;42.930;25.178;2023-05-10T14:02:47;24.00;99.90
11559;DHT22;5835;42.930;25.178;2023-05-10T14:05:15;24.60;99.90
11559;DHT22;5835;42.930;25.178;2023-05-10T14:07:42;24.30;99.90
11559;DHT22;5835;42.930;25.178;2023-05-10T14:10:10;23.90;99.90
11559;DHT22;5835;42.930;25.178;2023-05-10T14:12:38;24.10;99.90
11559;DHT22;5835;42.930;25.178;2023-05-10T14:15:07;23.90;99.90
11559;DHT22;5835;42.930;25.178;2023-05-10T14:17:37;24.00;99.90
11559;DHT22;5835;42.930;25.178;2023-05-10T14:20:05;23.10;99.90
11559;DHT22;5835;42.930;25.178;2023-05-10T14:22:33;22.40;99.90
11559;DHT22;5835;42.930;25.178;2023-05-10T14:25:01;22.00;1.00
11559;DHT22;5835;42.930;25.178;2023-05-10T14:27:28;21.80;99.90
11559;DHT22;5835;42.930;25.178;2023-05-10T14:29:56;21.80;99.90
11559;DHT22;5835;42.930;25.178;2023-05-10T14:32:25;21.90;99.90
11559;DHT22;5835;42.930;25.178;2023-05-10T14:34:53;22.00;99.90
11559;DHT22;5835;42.930;25.178;2023-05-10T14:37:21;22.50;99.90
11559;DHT22;5835;42.930;25.178;2023-05-10T14:39:49;22.80;99.90
11559;DHT22;5835;42.930;25.178;2023-05-10T14:42:16;22.60;99.90
11559;DHT22;5835;42.930;25.178;2023-05-10T14:44:44;22.30;99.90
11559;DHT22;5835;42.930;25.178;2023-05-10T14:47:11;22.10;99.90
11559;DHT22;5835;42.930;25.178;2023-05-10T14:49:40;21.90;99.90
11559;DHT22;5835;42.930;25.178;2023-05-10T14:52:08;22.00;99.90
11559;DHT22;5835;42.930;25.178;2023-05-10T14:54:38;21.90;99.90
11559;DHT22;5835;42.930;25.178;2023-05-10T14:57:06;22.00;99.90
11559;DHT22;5835;42.930;25.178;2023-05-10T14:59:33;22.10;99.90
11559;DHT22;5835;42.930;25.178;2023-05-10T15:02:01;22.10;99.90
11559;DHT22;5835;42.930;25.178;2023-05-10T15:04:29;22.50;99.90
11559;DHT22;5835;42.930;25.178;2023-05-10T15:06:58;22.30;99.90
11559;DHT22;5835;42.930;25.178;2023-05-10T15:09:26;21.20;99.90
11559;DHT22;5835;42.930;25.178;2023-05-10T15:11:54;20.70;99.90
11559;DHT22;5835;42.930;25.178;2023-05-10T15:14:22;20.70;99.90
11559;DHT22;5835;42.930;25.178;2023-05-10T15:16:49;20.50;99.90
11559;DHT22;5835;42.930;25.178;2023-05-10T15:19:17;20.10;99.90
11559;DHT22;5835;42.930;25.178;2023-05-10T15:21:45;20.10;99.90
11559;DHT22;5835;42.930;25.178;2023-05-10T15:24:14;19.80;1.00
11559;DHT22;5835;42.930;25.178;2023-05-10T15:26:42;19.50;99.90
11559;DHT22;5835;42.930;25.178;2023-05-10T15:29:09;19.30;1.00
11559;DHT22;5835;42.930;25.178;2023-05-10T15:31:36;19.10;1.00
11559;DHT22;5835;42.930;25.178;2023-05-10T15:34:05;19.00;1.00
11559;DHT22;5835;42.930;25.178;2023-05-10T15:36:32;18.80;1.00
11559;DHT22;5835;42.930;25.178;2023-05-10T15:39:00;18.60;1.00
11559;DHT22;5835;42.930;25.178;2023-05-10T15:41:29;18.40;1.00
11559;DHT22;5835;42.930;25.178;2023-05-10T15:43:57;18.30;1.00
11559;DHT22;5835;42.930;25.178;2023-05-10T15:46:26;18.20;1.00
11559;DHT22;5835;42.930;25.178;2023-05-10T15:48:54;18.20;1.00
11559;DHT22;5835;42.930;25.178;2023-05-10T15:51:21;18.00;1.00
11559;DHT22;5835;42.930;25.178;2023-05-10T15:53:49;18.00;1.00
11559;DHT22;5835;42.930;25.178;2023-05-10T15:56:16;17.90;1.00
11559;DHT22;5835;42.930;25.178;2023-05-10T15:58:45;17.70;1.00
11559;DHT22;5835;42.930;25.178;2023-05-10T16:01:13;17.70;1.00